Aérodrome :
LOGIN :

S'inscrire | Disclaimer

   EN    FR    IT 

 










Légende :    VFR   VFR Marginal   IFR   IFR Intensif   IFR Très Intensif
Visi : 
Plafond : 
>= 8 km
>= 3000ft
5 à 8 km
1000 à 3000 ft
1500m à 5 km
500 à 1000 ft
800 à 1500m
200 à 500 ft
< 800m
< 200 ft
Symboles :   Orages  Brouillard  Fortes neiges  Fortes précipitations  Vent > 20 kt
SIGMETs :   Divers  Orages  Givrage  Turbulence  Onde Orograph.  Cendres Volcan.







- Altitude de l'aérodrome : 48 ft
- Code IATA : PSR


LIBP - Abruzzo Pescara

DERNIER METAR :
  • 251950Z 22005KT CAVOK 13/09 Q1013

METARs EXPIRÉS :
  • 251850Z 01002KT 9999 FEW060 15/09 Q1013
  • 251750Z 03005KT 360V070 9999 FEW060 16/10 Q1013

TAF TAF LIBP
Valide du 25 à 18h jusqu'au 26 à 18h UTC


251700Z 2518/2618 VRB05KT 9999 SCT040
BECMG 2608/2610 12010KT
Pas de NOTAMs connus pour ce terrain.



MET'MAP, la Météo Aéronautique d'un coup d'oeil ! - Copyright ORBIFLY Décembre 2007 - Disclaimer

ORBIFLY MET'MAP TEAM :

Programmation & Développement : Alexandra Zaïnal
Conception & Développement : Baudouin d'Aumeries
Co-Programmation & Développement : Marc-Olivier Méhu
Soutien technique & logistique : Manuel Goepfert

Contact : metmap@orbifly.com




SOURCES & CREDITS :

   NOAA